sensor_id;sensor_type;location;lat;lon;timestamp;P1;durP1;ratioP1;P2;durP2;ratioP2
50161;SDS011;36061;48.116;11.612;2023-04-06T00:00:57;5.77;;;4.50;;
50161;SDS011;36061;48.116;11.612;2023-04-06T00:03:25;5.33;;;4.07;;
50161;SDS011;36061;48.116;11.612;2023-04-06T00:05:53;6.33;;;4.10;;
50161;SDS011;36061;48.116;11.612;2023-04-06T00:08:21;5.63;;;4.17;;
50161;SDS011;36061;48.116;11.612;2023-04-06T00:10:48;6.97;;;3.60;;
50161;SDS011;36061;48.116;11.612;2023-04-06T00:13:16;5.07;;;4.13;;
50161;SDS011;36061;48.116;11.612;2023-04-06T00:15:43;9.07;;;4.30;;
50161;SDS011;36061;48.116;11.612;2023-04-06T00:18:12;4.63;;;3.67;;
50161;SDS011;36061;48.116;11.612;2023-04-06T00:20:39;5.57;;;3.53;;
50161;SDS011;36061;48.116;11.612;2023-04-06T00:23:07;5.63;;;3.80;;
50161;SDS011;36061;48.116;11.612;2023-04-06T00:25:35;4.80;;;3.70;;
50161;SDS011;36061;48.116;11.612;2023-04-06T00:28:02;5.00;;;3.70;;
50161;SDS011;36061;48.116;11.612;2023-04-06T00:30:30;5.40;;;3.60;;
50161;SDS011;36061;48.116;11.612;2023-04-06T00:32:57;6.80;;;3.90;;
50161;SDS011;36061;48.116;11.612;2023-04-06T00:35:26;5.50;;;3.53;;
50161;SDS011;36061;48.116;11.612;2023-04-06T00:37:53;6.07;;;3.63;;
50161;SDS011;36061;48.116;11.612;2023-04-06T00:40:21;3.90;;;3.07;;
50161;SDS011;36061;48.116;11.612;2023-04-06T00:42:48;6.03;;;3.67;;
50161;SDS011;36061;48.116;11.612;2023-04-06T00:45:16;5.07;;;3.43;;
50161;SDS011;36061;48.116;11.612;2023-04-06T00:47:44;5.53;;;3.53;;
50161;SDS011;36061;48.116;11.612;2023-04-06T00:50:12;5.17;;;3.67;;
50161;SDS011;36061;48.116;11.612;2023-04-06T00:52:40;4.67;;;3.67;;
50161;SDS011;36061;48.116;11.612;2023-04-06T00:55:08;5.00;;;3.80;;
50161;SDS011;36061;48.116;11.612;2023-04-06T00:57:40;3.53;;;2.93;;
50161;SDS011;36061;48.116;11.612;2023-04-06T01:00:08;4.40;;;3.33;;
50161;SDS011;36061;48.116;11.612;2023-04-06T01:02:37;3.60;;;2.90;;
50161;SDS011;36061;48.116;11.612;2023-04-06T01:05:05;4.07;;;3.33;;
50161;SDS011;36061;48.116;11.612;2023-04-06T01:07:45;4.13;;;3.60;;
50161;SDS011;36061;48.116;11.612;2023-04-06T01:10:23;5.70;;;3.53;;
50161;SDS011;36061;48.116;11.612;2023-04-06T01:12:55;4.83;;;3.43;;
50161;SDS011;36061;48.116;11.612;2023-04-06T01:15:42;3.10;;;2.67;;
50161;SDS011;36061;48.116;11.612;2023-04-06T01:18:14;4.53;;;3.57;;
50161;SDS011;36061;48.116;11.612;2023-04-06T01:20:48;3.57;;;3.00;;
50161;SDS011;36061;48.116;11.612;2023-04-06T01:23:18;8.33;;;3.20;;
50161;SDS011;36061;48.116;11.612;2023-04-06T01:25:47;4.30;;;2.97;;
50161;SDS011;36061;48.116;11.612;2023-04-06T01:28:14;10.20;;;3.63;;
50161;SDS011;36061;48.116;11.612;2023-04-06T01:30:53;5.53;;;2.97;;
50161;SDS011;36061;48.116;11.612;2023-04-06T01:33:43;6.03;;;3.63;;
50161;SDS011;36061;48.116;11.612;2023-04-06T01:36:14;4.80;;;3.27;;
50161;SDS011;36061;48.116;11.612;2023-04-06T01:38:45;5.63;;;3.57;;
50161;SDS011;36061;48.116;11.612;2023-04-06T01:41:15;4.57;;;3.43;;
50161;SDS011;36061;48.116;11.612;2023-04-06T01:43:47;4.93;;;3.17;;
50161;SDS011;36061;48.116;11.612;2023-04-06T01:46:20;5.10;;;3.30;;
50161;SDS011;36061;48.116;11.612;2023-04-06T01:48:48;6.87;;;3.50;;
50161;SDS011;36061;48.116;11.612;2023-04-06T01:51:27;4.33;;;3.23;;
50161;SDS011;36061;48.116;11.612;2023-04-06T01:54:00;12.10;;;3.53;;
50161;SDS011;36061;48.116;11.612;2023-04-06T01:56:59;6.37;;;3.80;;
50161;SDS011;36061;48.116;11.612;2023-04-06T01:59:33;6.30;;;3.63;;
50161;SDS011;36061;48.116;11.612;2023-04-06T02:02:06;4.93;;;3.20;;
50161;SDS011;36061;48.116;11.612;2023-04-06T02:04:35;5.33;;;3.13;;
50161;SDS011;36061;48.116;11.612;2023-04-06T02:07:11;5.10;;;3.47;;
50161;SDS011;36061;48.116;11.612;2023-04-06T02:09:40;5.93;;;3.63;;
50161;SDS011;36061;48.116;11.612;2023-04-06T02:12:14;4.40;;;3.77;;
50161;SDS011;36061;48.116;11.612;2023-04-06T02:14:41;4.30;;;3.07;;
50161;SDS011;36061;48.116;11.612;2023-04-06T02:17:09;3.43;;;3.10;;
50161;SDS011;36061;48.116;11.612;2023-04-06T02:19:36;5.00;;;3.57;;
50161;SDS011;36061;48.116;11.612;2023-04-06T02:22:04;4.93;;;3.10;;
50161;SDS011;36061;48.116;11.612;2023-04-06T02:24:32;4.23;;;2.87;;
50161;SDS011;36061;48.116;11.612;2023-04-06T02:27:00;5.50;;;3.23;;
50161;SDS011;36061;48.116;11.612;2023-04-06T02:29:28;5.87;;;3.27;;
50161;SDS011;36061;48.116;11.612;2023-04-06T02:31:56;3.37;;;2.93;;
50161;SDS011;36061;48.116;11.612;2023-04-06T02:34:23;5.87;;;3.67;;
50161;SDS011;36061;48.116;11.612;2023-04-06T02:36:51;4.13;;;2.60;;
50161;SDS011;36061;48.116;11.612;2023-04-06T02:39:18;5.80;;;3.07;;
50161;SDS011;36061;48.116;11.612;2023-04-06T02:41:46;4.43;;;3.10;;
50161;SDS011;36061;48.116;11.612;2023-04-06T02:44:19;4.47;;;3.03;;
50161;SDS011;36061;48.116;11.612;2023-04-06T02:46:47;4.07;;;3.10;;
50161;SDS011;36061;48.116;11.612;2023-04-06T02:49:14;5.50;;;3.27;;
50161;SDS011;36061;48.116;11.612;2023-04-06T02:51:41;3.77;;;2.83;;
50161;SDS011;36061;48.116;11.612;2023-04-06T02:54:22;4.03;;;3.00;;
50161;SDS011;36061;48.116;11.612;2023-04-06T02:56:50;4.50;;;3.20;;
50161;SDS011;36061;48.116;11.612;2023-04-06T02:59:19;4.27;;;3.20;;
50161;SDS011;36061;48.116;11.612;2023-04-06T03:02:00;5.07;;;3.03;;
50161;SDS011;36061;48.116;11.612;2023-04-06T03:04:28;5.37;;;3.20;;
50161;SDS011;36061;48.116;11.612;2023-04-06T03:06:58;3.37;;;3.07;;
50161;SDS011;36061;48.116;11.612;2023-04-06T03:09:33;6.03;;;3.60;;
50161;SDS011;36061;48.116;11.612;2023-04-06T03:12:03;3.83;;;3.40;;
50161;SDS011;36061;48.116;11.612;2023-04-06T03:14:40;5.03;;;2.83;;
50161;SDS011;36061;48.116;11.612;2023-04-06T03:17:08;4.70;;;3.43;;
50161;SDS011;36061;48.116;11.612;2023-04-06T03:19:35;5.43;;;3.50;;
50161;SDS011;36061;48.116;11.612;2023-04-06T03:22:03;4.77;;;3.27;;
50161;SDS011;36061;48.116;11.612;2023-04-06T03:24:30;6.60;;;3.27;;
50161;SDS011;36061;48.116;11.612;2023-04-06T03:26:57;4.37;;;3.37;;
50161;SDS011;36061;48.116;11.612;2023-04-06T03:29:26;9.03;;;3.30;;
50161;SDS011;36061;48.116;11.612;2023-04-06T03:31:55;4.97;;;3.07;;
50161;SDS011;36061;48.116;11.612;2023-04-06T03:34:30;3.87;;;2.90;;
50161;SDS011;36061;48.116;11.612;2023-04-06T03:36:57;4.13;;;3.50;;
50161;SDS011;36061;48.116;11.612;2023-04-06T03:39:25;3.87;;;3.30;;
50161;SDS011;36061;48.116;11.612;2023-04-06T03:41:53;4.60;;;3.57;;
50161;SDS011;36061;48.116;11.612;2023-04-06T03:44:35;5.23;;;3.20;;
50161;SDS011;36061;48.116;11.612;2023-04-06T03:47:04;6.80;;;3.97;;
50161;SDS011;36061;48.116;11.612;2023-04-06T03:49:31;5.60;;;3.67;;
50161;SDS011;36061;48.116;11.612;2023-04-06T03:52:00;9.47;;;3.80;;
50161;SDS011;36061;48.116;11.612;2023-04-06T03:54:28;4.40;;;3.57;;
50161;SDS011;36061;48.116;11.612;2023-04-06T03:56:55;5.33;;;3.33;;
50161;SDS011;36061;48.116;11.612;2023-04-06T03:59:25;4.57;;;2.90;;
50161;SDS011;36061;48.116;11.612;2023-04-06T04:01:53;5.20;;;3.97;;
50161;SDS011;36061;48.116;11.612;2023-04-06T04:04:21;5.80;;;4.07;;
50161;SDS011;36061;48.116;11.612;2023-04-06T04:06:49;5.70;;;3.93;;
50161;SDS011;36061;48.116;11.612;2023-04-06T04:09:16;4.87;;;3.73;;
50161;SDS011;36061;48.116;11.612;2023-04-06T04:11:43;4.97;;;3.73;;
50161;SDS011;36061;48.116;11.612;2023-04-06T04:14:10;7.43;;;3.63;;
50161;SDS011;36061;48.116;11.612;2023-04-06T04:16:38;6.03;;;3.83;;
50161;SDS011;36061;48.116;11.612;2023-04-06T04:19:07;4.83;;;3.93;;
50161;SDS011;36061;48.116;11.612;2023-04-06T04:21:41;5.07;;;3.87;;
50161;SDS011;36061;48.116;11.612;2023-04-06T04:24:10;3.63;;;3.27;;
50161;SDS011;36061;48.116;11.612;2023-04-06T04:26:39;9.77;;;4.43;;
50161;SDS011;36061;48.116;11.612;2023-04-06T04:29:06;6.97;;;3.50;;
50161;SDS011;36061;48.116;11.612;2023-04-06T04:31:36;4.97;;;2.90;;
50161;SDS011;36061;48.116;11.612;2023-04-06T04:34:07;5.00;;;3.70;;
50161;SDS011;36061;48.116;11.612;2023-04-06T04:36:36;7.83;;;4.00;;
50161;SDS011;36061;48.116;11.612;2023-04-06T04:39:06;5.90;;;3.90;;
50161;SDS011;36061;48.116;11.612;2023-04-06T04:41:37;5.37;;;4.10;;
50161;SDS011;36061;48.116;11.612;2023-04-06T04:44:07;9.47;;;4.23;;
50161;SDS011;36061;48.116;11.612;2023-04-06T04:46:35;6.63;;;3.73;;
50161;SDS011;36061;48.116;11.612;2023-04-06T04:49:03;5.57;;;4.17;;
50161;SDS011;36061;48.116;11.612;2023-04-06T04:51:31;8.17;;;3.40;;
50161;SDS011;36061;48.116;11.612;2023-04-06T04:54:23;7.50;;;4.43;;
50161;SDS011;36061;48.116;11.612;2023-04-06T04:56:50;5.70;;;3.40;;
50161;SDS011;36061;48.116;11.612;2023-04-06T04:59:38;7.37;;;4.00;;
50161;SDS011;36061;48.116;11.612;2023-04-06T05:02:14;5.80;;;4.03;;
50161;SDS011;36061;48.116;11.612;2023-04-06T05:04:53;10.63;;;4.80;;
50161;SDS011;36061;48.116;11.612;2023-04-06T05:07:24;5.47;;;3.53;;
50161;SDS011;36061;48.116;11.612;2023-04-06T05:09:54;6.23;;;3.67;;
50161;SDS011;36061;48.116;11.612;2023-04-06T05:12:25;10.83;;;4.27;;
50161;SDS011;36061;48.116;11.612;2023-04-06T05:15:06;4.70;;;3.60;;
50161;SDS011;36061;48.116;11.612;2023-04-06T05:17:34;6.17;;;4.10;;
50161;SDS011;36061;48.116;11.612;2023-04-06T05:20:02;6.37;;;4.03;;
50161;SDS011;36061;48.116;11.612;2023-04-06T05:22:34;5.20;;;3.83;;
50161;SDS011;36061;48.116;11.612;2023-04-06T05:25:09;5.87;;;4.17;;
50161;SDS011;36061;48.116;11.612;2023-04-06T05:27:38;8.00;;;4.30;;
50161;SDS011;36061;48.116;11.612;2023-04-06T05:30:14;8.10;;;4.13;;
50161;SDS011;36061;48.116;11.612;2023-04-06T05:32:45;7.47;;;4.03;;
50161;SDS011;36061;48.116;11.612;2023-04-06T05:35:13;5.07;;;4.17;;
50161;SDS011;36061;48.116;11.612;2023-04-06T05:37:45;9.63;;;4.50;;
50161;SDS011;36061;48.116;11.612;2023-04-06T05:40:14;5.70;;;4.23;;
50161;SDS011;36061;48.116;11.612;2023-04-06T05:42:42;9.33;;;4.97;;
50161;SDS011;36061;48.116;11.612;2023-04-06T05:45:10;5.70;;;4.17;;
50161;SDS011;36061;48.116;11.612;2023-04-06T05:47:43;6.70;;;3.77;;
50161;SDS011;36061;48.116;11.612;2023-04-06T05:50:20;6.73;;;3.97;;
50161;SDS011;36061;48.116;11.612;2023-04-06T05:52:47;7.23;;;3.93;;
50161;SDS011;36061;48.116;11.612;2023-04-06T05:55:20;8.57;;;4.20;;
50161;SDS011;36061;48.116;11.612;2023-04-06T05:57:55;4.47;;;3.77;;
50161;SDS011;36061;48.116;11.612;2023-04-06T06:00:23;11.83;;;5.00;;
50161;SDS011;36061;48.116;11.612;2023-04-06T06:03:01;8.90;;;4.10;;
50161;SDS011;36061;48.116;11.612;2023-04-06T06:05:30;8.73;;;4.47;;
50161;SDS011;36061;48.116;11.612;2023-04-06T06:08:04;6.20;;;3.70;;
50161;SDS011;36061;48.116;11.612;2023-04-06T06:10:33;9.93;;;4.47;;
50161;SDS011;36061;48.116;11.612;2023-04-06T06:13:01;9.67;;;4.60;;
50161;SDS011;36061;48.116;11.612;2023-04-06T06:15:28;7.53;;;3.73;;
50161;SDS011;36061;48.116;11.612;2023-04-06T06:17:55;6.13;;;3.83;;
50161;SDS011;36061;48.116;11.612;2023-04-06T06:20:25;6.27;;;4.03;;
50161;SDS011;36061;48.116;11.612;2023-04-06T06:22:52;7.67;;;4.20;;
50161;SDS011;36061;48.116;11.612;2023-04-06T06:25:21;5.80;;;3.83;;
50161;SDS011;36061;48.116;11.612;2023-04-06T06:27:51;6.57;;;3.83;;
50161;SDS011;36061;48.116;11.612;2023-04-06T06:30:19;7.47;;;4.40;;
50161;SDS011;36061;48.116;11.612;2023-04-06T06:32:50;4.47;;;3.63;;
50161;SDS011;36061;48.116;11.612;2023-04-06T06:35:18;7.70;;;3.60;;
50161;SDS011;36061;48.116;11.612;2023-04-06T06:37:47;4.57;;;4.00;;
50161;SDS011;36061;48.116;11.612;2023-04-06T06:40:17;4.83;;;3.50;;
50161;SDS011;36061;48.116;11.612;2023-04-06T06:42:47;7.03;;;3.87;;
50161;SDS011;36061;48.116;11.612;2023-04-06T06:45:22;8.43;;;4.03;;
50161;SDS011;36061;48.116;11.612;2023-04-06T06:47:50;7.90;;;3.70;;
50161;SDS011;36061;48.116;11.612;2023-04-06T06:50:18;7.53;;;3.70;;
50161;SDS011;36061;48.116;11.612;2023-04-06T06:52:45;7.03;;;3.60;;
50161;SDS011;36061;48.116;11.612;2023-04-06T06:55:13;7.50;;;4.33;;
50161;SDS011;36061;48.116;11.612;2023-04-06T06:57:41;5.40;;;3.93;;
50161;SDS011;36061;48.116;11.612;2023-04-06T07:00:13;8.23;;;4.07;;
50161;SDS011;36061;48.116;11.612;2023-04-06T07:02:44;9.07;;;4.50;;
50161;SDS011;36061;48.116;11.612;2023-04-06T07:05:11;5.50;;;4.50;;
50161;SDS011;36061;48.116;11.612;2023-04-06T07:07:38;6.13;;;4.07;;
50161;SDS011;36061;48.116;11.612;2023-04-06T07:10:06;11.43;;;4.50;;
50161;SDS011;36061;48.116;11.612;2023-04-06T07:12:37;6.50;;;3.87;;
50161;SDS011;36061;48.116;11.612;2023-04-06T07:15:04;5.43;;;3.90;;
50161;SDS011;36061;48.116;11.612;2023-04-06T07:17:33;6.03;;;4.10;;
50161;SDS011;36061;48.116;11.612;2023-04-06T07:20:02;7.07;;;4.47;;
50161;SDS011;36061;48.116;11.612;2023-04-06T07:22:30;5.63;;;4.17;;
50161;SDS011;36061;48.116;11.612;2023-04-06T07:24:57;7.33;;;4.50;;
50161;SDS011;36061;48.116;11.612;2023-04-06T07:27:25;5.03;;;4.43;;
50161;SDS011;36061;48.116;11.612;2023-04-06T07:29:52;6.23;;;4.63;;
50161;SDS011;36061;48.116;11.612;2023-04-06T07:32:19;8.87;;;4.90;;
50161;SDS011;36061;48.116;11.612;2023-04-06T07:34:47;9.10;;;4.80;;
50161;SDS011;36061;48.116;11.612;2023-04-06T07:37:16;8.60;;;5.20;;
50161;SDS011;36061;48.116;11.612;2023-04-06T07:39:44;8.03;;;5.33;;
50161;SDS011;36061;48.116;11.612;2023-04-06T07:42:12;7.80;;;4.50;;
50161;SDS011;36061;48.116;11.612;2023-04-06T07:44:39;8.80;;;4.50;;
50161;SDS011;36061;48.116;11.612;2023-04-06T07:47:07;8.50;;;5.23;;
50161;SDS011;36061;48.116;11.612;2023-04-06T07:49:34;8.53;;;4.70;;
50161;SDS011;36061;48.116;11.612;2023-04-06T07:52:02;11.03;;;5.10;;
50161;SDS011;36061;48.116;11.612;2023-04-06T07:57:01;6.27;;;4.70;;
50161;SDS011;36061;48.116;11.612;2023-04-06T07:59:28;7.43;;;5.00;;
50161;SDS011;36061;48.116;11.612;2023-04-06T08:01:56;6.23;;;4.70;;
50161;SDS011;36061;48.116;11.612;2023-04-06T08:04:23;5.73;;;4.23;;
50161;SDS011;36061;48.116;11.612;2023-04-06T08:06:50;4.17;;;3.77;;
50161;SDS011;36061;48.116;11.612;2023-04-06T08:09:18;7.57;;;4.47;;
50161;SDS011;36061;48.116;11.612;2023-04-06T08:11:47;7.47;;;4.47;;
50161;SDS011;36061;48.116;11.612;2023-04-06T08:14:14;6.43;;;4.30;;
50161;SDS011;36061;48.116;11.612;2023-04-06T08:16:42;5.00;;;4.07;;
50161;SDS011;36061;48.116;11.612;2023-04-06T08:19:09;6.07;;;4.60;;
50161;SDS011;36061;48.116;11.612;2023-04-06T08:21:36;7.77;;;4.97;;
50161;SDS011;36061;48.116;11.612;2023-04-06T08:24:05;5.97;;;4.47;;
50161;SDS011;36061;48.116;11.612;2023-04-06T08:26:32;5.17;;;4.47;;
50161;SDS011;36061;48.116;11.612;2023-04-06T08:29:01;5.83;;;4.50;;
50161;SDS011;36061;48.116;11.612;2023-04-06T08:31:29;7.60;;;5.47;;
50161;SDS011;36061;48.116;11.612;2023-04-06T08:33:57;5.13;;;4.20;;
50161;SDS011;36061;48.116;11.612;2023-04-06T08:36:24;7.73;;;4.87;;
50161;SDS011;36061;48.116;11.612;2023-04-06T08:38:51;8.23;;;4.83;;
50161;SDS011;36061;48.116;11.612;2023-04-06T08:41:19;6.15;;;5.18;;
50161;SDS011;36061;48.116;11.612;2023-04-06T08:43:47;5.93;;;4.40;;
50161;SDS011;36061;48.116;11.612;2023-04-06T08:46:17;6.20;;;4.73;;
50161;SDS011;36061;48.116;11.612;2023-04-06T08:48:45;7.40;;;5.20;;
50161;SDS011;36061;48.116;11.612;2023-04-06T08:51:14;6.70;;;4.33;;
50161;SDS011;36061;48.116;11.612;2023-04-06T08:53:42;8.40;;;3.90;;
50161;SDS011;36061;48.116;11.612;2023-04-06T08:56:09;6.10;;;4.37;;
50161;SDS011;36061;48.116;11.612;2023-04-06T08:58:39;6.53;;;4.43;;
50161;SDS011;36061;48.116;11.612;2023-04-06T09:01:07;9.70;;;5.23;;
50161;SDS011;36061;48.116;11.612;2023-04-06T09:03:39;5.23;;;4.47;;
50161;SDS011;36061;48.116;11.612;2023-04-06T09:06:08;6.80;;;4.37;;
50161;SDS011;36061;48.116;11.612;2023-04-06T09:08:37;6.53;;;4.57;;
50161;SDS011;36061;48.116;11.612;2023-04-06T09:11:06;10.47;;;4.90;;
50161;SDS011;36061;48.116;11.612;2023-04-06T09:13:43;7.93;;;4.47;;
50161;SDS011;36061;48.116;11.612;2023-04-06T09:16:11;5.97;;;4.90;;
50161;SDS011;36061;48.116;11.612;2023-04-06T09:18:41;13.30;;;6.40;;
50161;SDS011;36061;48.116;11.612;2023-04-06T09:21:08;4.93;;;4.30;;
50161;SDS011;36061;48.116;11.612;2023-04-06T09:23:36;7.77;;;5.00;;
50161;SDS011;36061;48.116;11.612;2023-04-06T09:26:07;9.50;;;5.20;;
50161;SDS011;36061;48.116;11.612;2023-04-06T09:28:45;5.93;;;4.77;;
50161;SDS011;36061;48.116;11.612;2023-04-06T09:31:14;6.63;;;5.27;;
50161;SDS011;36061;48.116;11.612;2023-04-06T09:33:44;7.13;;;6.03;;
50161;SDS011;36061;48.116;11.612;2023-04-06T09:36:12;7.73;;;5.43;;
50161;SDS011;36061;48.116;11.612;2023-04-06T09:38:51;6.87;;;4.83;;
50161;SDS011;36061;48.116;11.612;2023-04-06T09:41:23;6.40;;;4.97;;
50161;SDS011;36061;48.116;11.612;2023-04-06T09:43:51;7.97;;;4.57;;
50161;SDS011;36061;48.116;11.612;2023-04-06T09:46:20;6.60;;;4.90;;
50161;SDS011;36061;48.116;11.612;2023-04-06T09:48:50;6.73;;;4.33;;
50161;SDS011;36061;48.116;11.612;2023-04-06T09:51:19;7.03;;;4.93;;
50161;SDS011;36061;48.116;11.612;2023-04-06T09:53:48;10.50;;;5.57;;
50161;SDS011;36061;48.116;11.612;2023-04-06T09:56:20;9.53;;;5.43;;
50161;SDS011;36061;48.116;11.612;2023-04-06T09:58:55;6.03;;;5.03;;
50161;SDS011;36061;48.116;11.612;2023-04-06T10:01:28;7.50;;;5.60;;
50161;SDS011;36061;48.116;11.612;2023-04-06T10:04:03;7.90;;;5.30;;
50161;SDS011;36061;48.116;11.612;2023-04-06T10:06:39;7.43;;;4.90;;
50161;SDS011;36061;48.116;11.612;2023-04-06T10:09:07;10.30;;;5.50;;
50161;SDS011;36061;48.116;11.612;2023-04-06T10:11:36;7.27;;;5.23;;
50161;SDS011;36061;48.116;11.612;2023-04-06T10:14:04;9.73;;;5.20;;
50161;SDS011;36061;48.116;11.612;2023-04-06T10:16:32;7.03;;;4.67;;
50161;SDS011;36061;48.116;11.612;2023-04-06T10:19:04;6.90;;;5.00;;
50161;SDS011;36061;48.116;11.612;2023-04-06T10:21:39;9.27;;;5.13;;
50161;SDS011;36061;48.116;11.612;2023-04-06T10:24:10;10.83;;;5.43;;
50161;SDS011;36061;48.116;11.612;2023-04-06T10:26:38;8.27;;;5.57;;
50161;SDS011;36061;48.116;11.612;2023-04-06T10:29:06;9.27;;;5.37;;
50161;SDS011;36061;48.116;11.612;2023-04-06T10:31:39;7.27;;;5.17;;
50161;SDS011;36061;48.116;11.612;2023-04-06T10:34:10;7.13;;;5.03;;
50161;SDS011;36061;48.116;11.612;2023-04-06T10:36:39;7.50;;;5.33;;
50161;SDS011;36061;48.116;11.612;2023-04-06T10:39:07;5.80;;;4.80;;
50161;SDS011;36061;48.116;11.612;2023-04-06T10:41:35;9.90;;;5.37;;
50161;SDS011;36061;48.116;11.612;2023-04-06T10:44:07;6.50;;;5.40;;
50161;SDS011;36061;48.116;11.612;2023-04-06T10:46:34;10.70;;;5.43;;
50161;SDS011;36061;48.116;11.612;2023-04-06T10:49:12;9.83;;;4.97;;
50161;SDS011;36061;48.116;11.612;2023-04-06T10:51:39;9.97;;;5.53;;
50161;SDS011;36061;48.116;11.612;2023-04-06T10:54:06;6.73;;;4.97;;
50161;SDS011;36061;48.116;11.612;2023-04-06T10:56:36;8.57;;;5.37;;
50161;SDS011;36061;48.116;11.612;2023-04-06T10:59:05;5.53;;;4.47;;
50161;SDS011;36061;48.116;11.612;2023-04-06T11:01:33;7.33;;;5.07;;
50161;SDS011;36061;48.116;11.612;2023-04-06T11:04:00;7.43;;;5.17;;
50161;SDS011;36061;48.116;11.612;2023-04-06T11:06:29;7.17;;;4.90;;
50161;SDS011;36061;48.116;11.612;2023-04-06T11:08:57;8.50;;;6.03;;
50161;SDS011;36061;48.116;11.612;2023-04-06T11:11:25;6.33;;;4.70;;
50161;SDS011;36061;48.116;11.612;2023-04-06T11:13:54;8.37;;;5.13;;
50161;SDS011;36061;48.116;11.612;2023-04-06T11:16:22;7.87;;;5.40;;
50161;SDS011;36061;48.116;11.612;2023-04-06T11:18:51;7.67;;;5.57;;
50161;SDS011;36061;48.116;11.612;2023-04-06T11:21:32;7.70;;;5.53;;
50161;SDS011;36061;48.116;11.612;2023-04-06T11:24:06;6.73;;;5.53;;
50161;SDS011;36061;48.116;11.612;2023-04-06T11:26:37;5.00;;;4.50;;
50161;SDS011;36061;48.116;11.612;2023-04-06T11:29:09;7.43;;;4.80;;
50161;SDS011;36061;48.116;11.612;2023-04-06T11:31:40;6.73;;;5.47;;
50161;SDS011;36061;48.116;11.612;2023-04-06T11:34:11;10.93;;;5.50;;
50161;SDS011;36061;48.116;11.612;2023-04-06T11:36:41;8.43;;;5.40;;
50161;SDS011;36061;48.116;11.612;2023-04-06T11:39:09;7.63;;;5.30;;
50161;SDS011;36061;48.116;11.612;2023-04-06T11:41:37;6.30;;;4.57;;
50161;SDS011;36061;48.116;11.612;2023-04-06T11:44:06;6.47;;;5.07;;
50161;SDS011;36061;48.116;11.612;2023-04-06T11:46:33;9.97;;;4.70;;
50161;SDS011;36061;48.116;11.612;2023-04-06T11:49:00;6.33;;;4.47;;
50161;SDS011;36061;48.116;11.612;2023-04-06T11:51:28;6.60;;;4.80;;
50161;SDS011;36061;48.116;11.612;2023-04-06T11:53:57;7.03;;;4.90;;
50161;SDS011;36061;48.116;11.612;2023-04-06T11:56:25;7.97;;;5.40;;
50161;SDS011;36061;48.116;11.612;2023-04-06T11:58:57;8.27;;;5.13;;
50161;SDS011;36061;48.116;11.612;2023-04-06T12:01:25;7.47;;;4.97;;
50161;SDS011;36061;48.116;11.612;2023-04-06T12:03:53;5.83;;;5.03;;
50161;SDS011;36061;48.116;11.612;2023-04-06T12:06:20;4.73;;;4.27;;
50161;SDS011;36061;48.116;11.612;2023-04-06T12:08:47;4.67;;;3.93;;
50161;SDS011;36061;48.116;11.612;2023-04-06T12:11:16;5.90;;;4.10;;
50161;SDS011;36061;48.116;11.612;2023-04-06T12:13:45;5.33;;;3.73;;
50161;SDS011;36061;48.116;11.612;2023-04-06T12:16:12;6.10;;;4.47;;
50161;SDS011;36061;48.116;11.612;2023-04-06T12:18:39;7.10;;;4.43;;
50161;SDS011;36061;48.116;11.612;2023-04-06T12:21:07;7.73;;;4.27;;
50161;SDS011;36061;48.116;11.612;2023-04-06T12:23:34;5.83;;;4.23;;
50161;SDS011;36061;48.116;11.612;2023-04-06T12:26:02;8.40;;;5.27;;
50161;SDS011;36061;48.116;11.612;2023-04-06T12:28:31;9.13;;;4.70;;
50161;SDS011;36061;48.116;11.612;2023-04-06T12:30:59;12.50;;;6.43;;
50161;SDS011;36061;48.116;11.612;2023-04-06T12:33:26;6.23;;;5.13;;
50161;SDS011;36061;48.116;11.612;2023-04-06T12:35:53;7.17;;;4.63;;
50161;SDS011;36061;48.116;11.612;2023-04-06T12:38:21;5.60;;;4.63;;
50161;SDS011;36061;48.116;11.612;2023-04-06T12:40:49;10.57;;;4.70;;
50161;SDS011;36061;48.116;11.612;2023-04-06T12:43:16;5.50;;;4.20;;
50161;SDS011;36061;48.116;11.612;2023-04-06T12:45:45;6.43;;;4.93;;
50161;SDS011;36061;48.116;11.612;2023-04-06T12:48:12;5.33;;;4.20;;
50161;SDS011;36061;48.116;11.612;2023-04-06T12:50:39;6.40;;;3.90;;
50161;SDS011;36061;48.116;11.612;2023-04-06T12:53:07;4.43;;;3.90;;
50161;SDS011;36061;48.116;11.612;2023-04-06T12:55:34;5.87;;;4.37;;
50161;SDS011;36061;48.116;11.612;2023-04-06T12:58:01;7.73;;;4.30;;
50161;SDS011;36061;48.116;11.612;2023-04-06T13:00:29;4.37;;;3.17;;
50161;SDS011;36061;48.116;11.612;2023-04-06T13:02:58;8.97;;;3.60;;
50161;SDS011;36061;48.116;11.612;2023-04-06T13:05:25;7.20;;;4.20;;
50161;SDS011;36061;48.116;11.612;2023-04-06T13:07:53;5.27;;;4.07;;
50161;SDS011;36061;48.116;11.612;2023-04-06T13:10:20;7.80;;;4.07;;
50161;SDS011;36061;48.116;11.612;2023-04-06T13:12:47;5.50;;;4.20;;
50161;SDS011;36061;48.116;11.612;2023-04-06T13:15:15;4.87;;;3.63;;
50161;SDS011;36061;48.116;11.612;2023-04-06T13:17:42;5.70;;;4.30;;
50161;SDS011;36061;48.116;11.612;2023-04-06T13:20:11;5.57;;;4.30;;
50161;SDS011;36061;48.116;11.612;2023-04-06T13:22:39;8.23;;;3.73;;
50161;SDS011;36061;48.116;11.612;2023-04-06T13:25:06;8.07;;;4.50;;
50161;SDS011;36061;48.116;11.612;2023-04-06T13:27:34;6.37;;;4.17;;
50161;SDS011;36061;48.116;11.612;2023-04-06T13:30:01;5.43;;;4.30;;
50161;SDS011;36061;48.116;11.612;2023-04-06T13:32:29;6.63;;;4.57;;
50161;SDS011;36061;48.116;11.612;2023-04-06T13:34:56;8.20;;;4.90;;
50161;SDS011;36061;48.116;11.612;2023-04-06T13:37:27;7.47;;;5.03;;
50161;SDS011;36061;48.116;11.612;2023-04-06T13:39:54;7.30;;;5.00;;
50161;SDS011;36061;48.116;11.612;2023-04-06T13:42:21;5.93;;;4.53;;
50161;SDS011;36061;48.116;11.612;2023-04-06T13:44:49;5.53;;;4.20;;
50161;SDS011;36061;48.116;11.612;2023-04-06T13:47:17;6.27;;;4.60;;
50161;SDS011;36061;48.116;11.612;2023-04-06T13:49:44;6.40;;;4.10;;
50161;SDS011;36061;48.116;11.612;2023-04-06T13:52:11;7.90;;;5.10;;
50161;SDS011;36061;48.116;11.612;2023-04-06T13:54:40;11.00;;;5.27;;
50161;SDS011;36061;48.116;11.612;2023-04-06T13:57:07;6.80;;;4.43;;
50161;SDS011;36061;48.116;11.612;2023-04-06T13:59:34;6.97;;;4.67;;
50161;SDS011;36061;48.116;11.612;2023-04-06T14:02:02;4.87;;;4.03;;
50161;SDS011;36061;48.116;11.612;2023-04-06T14:04:30;6.60;;;3.70;;
50161;SDS011;36061;48.116;11.612;2023-04-06T14:06:58;7.33;;;4.30;;
50161;SDS011;36061;48.116;11.612;2023-04-06T14:09:26;6.23;;;4.00;;
50161;SDS011;36061;48.116;11.612;2023-04-06T14:11:55;6.77;;;3.90;;
50161;SDS011;36061;48.116;11.612;2023-04-06T14:14:22;4.47;;;4.03;;
50161;SDS011;36061;48.116;11.612;2023-04-06T14:16:50;7.27;;;3.77;;
50161;SDS011;36061;48.116;11.612;2023-04-06T14:19:17;5.53;;;3.80;;
50161;SDS011;36061;48.116;11.612;2023-04-06T14:21:46;4.07;;;3.67;;
50161;SDS011;36061;48.116;11.612;2023-04-06T14:24:13;4.63;;;3.83;;
50161;SDS011;36061;48.116;11.612;2023-04-06T14:26:41;5.17;;;3.77;;
50161;SDS011;36061;48.116;11.612;2023-04-06T14:29:10;7.03;;;4.80;;
50161;SDS011;36061;48.116;11.612;2023-04-06T14:31:38;9.03;;;4.47;;
50161;SDS011;36061;48.116;11.612;2023-04-06T14:34:05;7.37;;;4.80;;
50161;SDS011;36061;48.116;11.612;2023-04-06T14:36:32;4.83;;;4.30;;
50161;SDS011;36061;48.116;11.612;2023-04-06T14:39:02;9.20;;;4.30;;
50161;SDS011;36061;48.116;11.612;2023-04-06T14:41:31;4.80;;;3.50;;
50161;SDS011;36061;48.116;11.612;2023-04-06T14:44:00;4.10;;;3.40;;
50161;SDS011;36061;48.116;11.612;2023-04-06T14:46:29;3.30;;;2.87;;
50161;SDS011;36061;48.116;11.612;2023-04-06T14:48:56;4.90;;;3.43;;